Brilliance Of The Seas — C6SJ5 — position and weather

sailwx.info

Track history (hours):
 
Tides and Currents Weather Stations Pressure Air Temp Water Temp Dewpoint Dewpoint Depression Visibility Wind Speed Wind Dir Waves Ship Positions

Brilliance Of The Seas

Operator: Royal Caribbean Cruises Ltd

Last reported at 2017-Mar-24 00:34 UTC. Time now 2017-Mar-24 20:03 UTC.
Position N 20°34' W 086°58'.

Type: Ship. MMSI: 311361000.

Date/timePositionNaut miles runAvg speedWind from/ knotsBaromVisibWave heightAir tempDewpointWater temp
2017-Mar-24 00:34N 20°34' W 086°58'5 4.9
2017-Mar-23 23:30N 20°29' W 086°59'0 0.0
2017-Mar-23 22:33N 20°29' W 086°59'0 0.0
2017-Mar-23 21:33N 20°29' W 086°59'0 0.0
2017-Mar-23 20:33N 20°29' W 086°59'0 0.0
2017-Mar-23 19:33N 20°29' W 086°59'0 0.0
2017-Mar-23 18:33N 20°29' W 086°59'0 0.0
2017-Mar-23 17:30N 20°29' W 086°59'0 0.0
2017-Mar-23 16:33N 20°29' W 086°59'0 0.0
2017-Mar-23 15:34N 20°29' W 086°59'0 0.0
2017-Mar-23 14:34N 20°29' W 086°59'250 5.0
2017-Mar-21 13:00N 23°54' W 084°24'25116.2 060 / 131021.010.8 21.0 26.0
2017-Mar-20 21:32N 27°44' W 082°32'1111.7
2017-Mar-20 20:34N 27°54' W 082°26'3 2.6
2017-Mar-20 19:33N 27°57' W 082°27'0 0.0
2017-Mar-20 18:33N 27°57' W 082°27'0 0.0
2017-Mar-20 17:33N 27°57' W 082°27'0 0.0
2017-Mar-20 16:33N 27°57' W 082°27'0 0.0
2017-Mar-20 15:33N 27°57' W 082°27'0 0.0
2017-Mar-20 14:33N 27°57' W 082°27'0 0.0
2017-Mar-20 13:33N 27°57' W 082°27'0 0.0
2017-Mar-20 12:33N 27°57' W 082°27'0 0.0
2017-Mar-20 11:30N 27°57' W 082°27'0 0.2
2017-Mar-20 10:34N 27°57' W 082°27'4 3.6
2017-Mar-20 09:33N 27°53' W 082°26'1212.0
2017-Mar-20 08:33N 27°42' W 082°33'12712.1
2017-Mar-19 22:05N 26°01' W 083°58'37015.7
2017-Mar-18 22:34N 20°31' W 086°59'2 1.8
2017-Mar-18 21:32N 20°29' W 086°59'0 0.0
2017-Mar-18 20:32N 20°29' W 086°59'0 0.0
2017-Mar-18 19:33N 20°29' W 086°59'0 0.0
2017-Mar-18 18:32N 20°29' W 086°59'0 0.0
2017-Mar-18 17:30N 20°29' W 086°59'0 0.0
2017-Mar-18 16:33N 20°29' W 086°59'0 0.0
2017-Mar-18 15:32N 20°29' W 086°59'0 0.0
2017-Mar-18 14:32N 20°29' W 086°59'0 0.0
2017-Mar-18 13:33N 20°29' W 086°59'0 0.0
2017-Mar-18 12:32N 20°29' W 086°59'1 1.1
2017-Mar-18 11:34N 20°30' W 086°59'33713.7
2017-Mar-17 11:00N 25°30' W 084°12'16412.2 050 / 191029.010.8 19.0 22.0
2017-Mar-16 21:30N 27°47' W 082°31'9 9.3
2017-Mar-16 20:33N 27°55' W 082°27'2 1.5
2017-Mar-16 19:31N 27°57' W 082°27'0 0.0
2017-Mar-16 18:31N 27°57' W 082°27'0 0.0
2017-Mar-16 17:31N 27°57' W 082°27'0 0.0
2017-Mar-16 16:31N 27°57' W 082°27'0 0.0
2017-Mar-16 15:31N 27°57' W 082°27'0 0.0
2017-Mar-16 14:33N 27°57' W 082°27'0 0.0
2017-Mar-16 13:33N 27°57' W 082°27'0 0.0
2017-Mar-16 12:33N 27°57' W 082°27'0 0.0
2017-Mar-16 11:33N 27°57' W 082°27'0 0.0
2017-Mar-16 10:33N 27°57' W 082°27'4 3.6
2017-Mar-16 09:33N 27°53' W 082°26'1212.4
2017-Mar-16 08:34N 27°42' W 082°33'49214.4
2017-Mar-14 22:25N 20°33' W 086°58'2 2.6
2017-Mar-14 21:27N 20°31' W 086°57'0 0.0
2017-Mar-14 20:24N 20°31' W 086°57'0 0.0
2017-Mar-14 19:33N 20°31' W 086°57'0 0.0
2017-Mar-14 18:30N 20°31' W 086°57'0 0.0
2017-Mar-14 17:33N 20°31' W 086°57'0 0.0
2017-Mar-14 16:33N 20°31' W 086°57'0 0.0
2017-Mar-14 15:33N 20°31' W 086°57'0 0.0
2017-Mar-14 14:33N 20°31' W 086°57'0 0.0
2017-Mar-14 13:30N 20°31' W 086°57'0 0.0
2017-Mar-14 12:24N 20°31' W 086°57'1 1.2
2017-Mar-14 11:33N 20°32' W 086°58'8 8.1
2017-Mar-14 10:33N 20°39' W 086°54'  
Track history (hours):
 
Tides and Currents Weather Stations Pressure Air Temp Water Temp Dewpoint Dewpoint Depression Visibility Wind Speed Wind Dir Waves Ship Positions

Brilliance Of The Seas

Operator: Royal Caribbean Cruises Ltd

Last reported at 2017-Mar-24 00:34 UTC. Time now 2017-Mar-24 20:03 UTC.
Position N 20°34' W 086°58'.

Type: Ship. MMSI: 311361000.

Date/timePositionNaut miles runAvg speedWind from/ knotsBaromVisibWave heightAir tempDewpointWater temp
2017-Mar-24 00:34N 20°34' W 086°58'5 4.9
2017-Mar-23 23:30N 20°29' W 086°59'0 0.0
2017-Mar-23 22:33N 20°29' W 086°59'0 0.0
2017-Mar-23 21:33N 20°29' W 086°59'0 0.0
2017-Mar-23 20:33N 20°29' W 086°59'0 0.0
2017-Mar-23 19:33N 20°29' W 086°59'0 0.0
2017-Mar-23 18:33N 20°29' W 086°59'0 0.0
2017-Mar-23 17:30N 20°29' W 086°59'0 0.0
2017-Mar-23 16:33N 20°29' W 086°59'0 0.0
2017-Mar-23 15:34N 20°29' W 086°59'0 0.0
2017-Mar-23 14:34N 20°29' W 086°59'250 5.0
2017-Mar-21 13:00N 23°54' W 084°24'25116.2 060 / 131021.010.8 21.0 26.0
2017-Mar-20 21:32N 27°44' W 082°32'1111.7
2017-Mar-20 20:34N 27°54' W 082°26'3 2.6
2017-Mar-20 19:33N 27°57' W 082°27'0 0.0
2017-Mar-20 18:33N 27°57' W 082°27'0 0.0
2017-Mar-20 17:33N 27°57' W 082°27'0 0.0
2017-Mar-20 16:33N 27°57' W 082°27'0 0.0
2017-Mar-20 15:33N 27°57' W 082°27'0 0.0
2017-Mar-20 14:33N 27°57' W 082°27'0 0.0
2017-Mar-20 13:33N 27°57' W 082°27'0 0.0
2017-Mar-20 12:33N 27°57' W 082°27'0 0.0
2017-Mar-20 11:30N 27°57' W 082°27'0 0.2
2017-Mar-20 10:34N 27°57' W 082°27'4 3.6
2017-Mar-20 09:33N 27°53' W 082°26'1212.0
2017-Mar-20 08:33N 27°42' W 082°33'12712.1
2017-Mar-19 22:05N 26°01' W 083°58'37015.7
2017-Mar-18 22:34N 20°31' W 086°59'2 1.8
2017-Mar-18 21:32N 20°29' W 086°59'0 0.0
2017-Mar-18 20:32N 20°29' W 086°59'0 0.0
2017-Mar-18 19:33N 20°29' W 086°59'0 0.0
2017-Mar-18 18:32N 20°29' W 086°59'0 0.0
2017-Mar-18 17:30N 20°29' W 086°59'0 0.0
2017-Mar-18 16:33N 20°29' W 086°59'0 0.0
2017-Mar-18 15:32N 20°29' W 086°59'0 0.0
2017-Mar-18 14:32N 20°29' W 086°59'0 0.0
2017-Mar-18 13:33N 20°29' W 086°59'0 0.0
2017-Mar-18 12:32N 20°29' W 086°59'1 1.1
2017-Mar-18 11:34N 20°30' W 086°59'33713.7
2017-Mar-17 11:00N 25°30' W 084°12'16412.2 050 / 191029.010.8 19.0 22.0
2017-Mar-16 21:30N 27°47' W 082°31'9 9.3
2017-Mar-16 20:33N 27°55' W 082°27'2 1.5
2017-Mar-16 19:31N 27°57' W 082°27'0 0.0
2017-Mar-16 18:31N 27°57' W 082°27'0 0.0
2017-Mar-16 17:31N 27°57' W 082°27'0 0.0
2017-Mar-16 16:31N 27°57' W 082°27'0 0.0
2017-Mar-16 15:31N 27°57' W 082°27'0 0.0
2017-Mar-16 14:33N 27°57' W 082°27'0 0.0
2017-Mar-16 13:33N 27°57' W 082°27'0 0.0
2017-Mar-16 12:33N 27°57' W 082°27'0 0.0
2017-Mar-16 11:33N 27°57' W 082°27'0 0.0
2017-Mar-16 10:33N 27°57' W 082°27'4 3.6
2017-Mar-16 09:33N 27°53' W 082°26'1212.4
2017-Mar-16 08:34N 27°42' W 082°33'49214.4
2017-Mar-14 22:25N 20°33' W 086°58'2 2.6
2017-Mar-14 21:27N 20°31' W 086°57'0 0.0
2017-Mar-14 20:24N 20°31' W 086°57'0 0.0
2017-Mar-14 19:33N 20°31' W 086°57'0 0.0
2017-Mar-14 18:30N 20°31' W 086°57'0 0.0
2017-Mar-14 17:33N 20°31' W 086°57'0 0.0
2017-Mar-14 16:33N 20°31' W 086°57'0 0.0
2017-Mar-14 15:33N 20°31' W 086°57'0 0.0
2017-Mar-14 14:33N 20°31' W 086°57'0 0.0
2017-Mar-14 13:30N 20°31' W 086°57'0 0.0
2017-Mar-14 12:24N 20°31' W 086°57'1 1.2
2017-Mar-14 11:33N 20°32' W 086°58'8 8.1
2017-Mar-14 10:33N 20°39' W 086°54'  

Dump ship's entire track history